Time;durP1;ratioP1;P1;durP2;ratioP2;P2;SDS_P1;SDS_P2;PMS_P1;PMS_P2;Temp;Humidity;BMP_temperature;BMP_pressure;BME280_temperature;BME280_humidity;BME280_pressure;Samples;Min_cycle;Max_cycle;Signal;HPM_P1;HPM_P2
2022/11/03 00:00:00;;;;;;;5.85;3.80;;;;;;;21.92;58.88;101040.31;20997518;28;20044;-76
2022/11/03 00:10:00;;;;;;;6.88;4.18;;;;;;;21.91;59.28;101033.38;21001140;28;20040;-76
2022/11/03 00:20:00;;;;;;;4.88;4.00;;;;;;;21.91;59.16;101028.09;20997376;28;20109;-76
2022/11/03 00:30:01;;;;;;;5.07;3.85;;;;;;;21.90;58.72;101021.16;20983902;28;20048;-77
2022/11/03 00:40:01;;;;;;;5.20;3.45;;;;;;;21.88;58.89;101018.59;20992026;28;20120;-77
2022/11/03 00:50:02;;;;;;;5.05;3.88;;;;;;;21.87;59.03;101019.56;20994925;28;20748;-77
2022/11/03 01:00:02;;;;;;;5.38;4.00;;;;;;;21.86;58.91;101017.88;20990423;28;20040;-77
2022/11/03 01:10:06;;;;;;;6.35;3.85;;;;;;;21.85;58.76;101016.19;20993359;28;20039;-76
2022/11/03 01:20:07;;;;;;;5.22;3.50;;;;;;;21.84;58.94;101019.78;20994963;28;20040;-77
2022/11/03 01:30:07;;;;;;;4.95;3.70;;;;;;;21.80;58.66;101020.94;20991716;28;20047;-76
2022/11/03 01:40:08;;;;;;;4.50;3.60;;;;;;;21.81;58.65;101005.97;20995494;28;20040;-76
2022/11/03 01:50:14;;;;;;;4.32;3.40;;;;;;;21.82;58.59;101005.00;20991805;28;20058;-77
2022/11/03 02:00:14;;;;;;;4.50;3.53;;;;;;;21.78;58.76;100985.94;20993627;28;20106;-76
2022/11/03 02:10:16;;;;;;;3.47;3.07;;;;;;;21.75;58.91;100994.91;21834642;22;20036;-72
2022/11/03 02:20:24;;;;;;;4.80;3.60;;;;;;;21.76;58.38;100998.38;20913931;28;20293;-72
2022/11/03 02:30:28;;;;;;;4.18;3.42;;;;;;;21.77;58.69;100993.97;20918466;28;20105;-72
2022/11/03 02:40:34;;;;;;;3.47;3.13;;;;;;;21.75;58.58;100992.28;20919311;28;20037;-72
2022/11/03 02:50:34;;;;;;;3.38;3.00;;;;;;;21.74;58.25;100998.47;20913766;28;20502;-72
2022/11/03 03:01:18;;;;;;;4.47;3.22;;;;;;;21.73;58.28;101006.50;20908700;28;20094;-72
2022/11/03 03:11:35;;;;;;;3.28;2.80;;;;;;;21.73;58.50;101006.50;20861106;28;20486;-72
2022/11/03 03:21:41;;;;;;;3.35;2.80;;;;;;;21.70;58.32;101014.63;20825306;28;20144;-72
2022/11/03 03:31:47;;;;;;;3.65;2.92;;;;;;;21.67;58.21;101010.41;20828004;28;20052;-72
2022/11/03 03:41:48;;;;;;;4.25;3.00;;;;;;;21.67;58.11;101010.41;20831362;28;20388;-72
2022/11/03 03:51:49;;;;;;;3.67;2.67;;;;;;;21.66;58.49;100998.16;20824296;28;20049;-72
2022/11/03 04:01:50;;;;;;;3.45;2.70;;;;;;;21.64;58.45;100996.59;20828763;28;20051;-72
2022/11/03 04:22:15;;;;;;;2.90;2.60;;;;;;;21.60;58.35;100995.97;20984580;28;20044;-72
2022/11/03 04:32:16;;;;;;;2.67;2.47;;;;;;;21.59;58.19;101005.69;20985579;28;20059;-72
2022/11/03 04:42:21;;;;;;;4.13;2.70;;;;;;;21.58;58.41;101009.25;20989889;28;20126;-72
2022/11/03 04:52:22;;;;;;;2.95;2.53;;;;;;;21.61;58.32;101000.28;20989172;28;20044;-72
2022/11/03 05:02:29;;;;;;;2.67;2.42;;;;;;;21.62;58.18;101009.03;20982998;28;20104;-73
2022/11/03 05:12:29;;;;;;;3.80;2.70;;;;;;;21.63;58.15;101002.81;20976739;28;20055;-73
2022/11/03 05:22:36;;;;;;;4.15;2.60;;;;;;;21.68;58.34;101012.09;20982483;28;20032;-75
2022/11/03 05:32:36;;;;;;;3.00;2.70;;;;;;;21.74;58.83;101040.66;20986271;28;20079;-74
2022/11/03 05:42:40;;;;;;;3.97;3.15;;;;;;;21.75;58.25;101052.91;20982440;28;20041;-73
2022/11/03 05:52:43;;;;;;;3.65;2.70;;;;;;;21.78;58.53;101051.84;20990163;28;20075;-73
2022/11/03 06:02:44;;;;;;;;;;;;;;;21.80;58.84;101054.34;20973947;28;20047;-74
2022/11/03 06:12:44;;;;;;;4.00;2.30;;;;;;;21.82;58.97;101063.00;20974257;28;19946;-74
2022/11/03 06:22:45;;;;;;;3.90;2.60;;;;;;;21.82;59.14;101074.38;20975944;28;20142;-76
2022/11/03 06:32:46;;;;;;;4.38;2.70;;;;;;;21.86;59.05;101075.88;21002999;28;20052;-76
2022/11/03 06:42:47;;;;;;;5.90;2.35;;;;;;;21.89;58.97;101061.63;21000974;28;20041;-77
2022/11/03 06:52:48;;;;;;;3.60;2.40;;;;;;;21.94;59.22;101090.31;20991564;28;20067;-77
2022/11/03 07:03:06;;;;;;;4.88;2.40;;;;;;;21.95;59.05;101103.41;21002315;28;20410;-76
2022/11/03 07:13:17;;;;;;;7.10;2.65;;;;;;;21.98;59.29;101097.88;21009645;28;20502;-77
2022/11/03 07:23:24;;;;;;;4.07;2.78;;;;;;;22.01;58.98;101112.69;20994093;28;20062;-77
2022/11/03 07:33:28;;;;;;;3.30;2.90;;;;;;;22.02;58.36;101104.66;21000648;28;20044;-76
2022/11/03 07:43:37;;;;;;;5.70;4.00;;;;;;;22.02;57.91;101106.44;21001395;28;20496;-74
2022/11/03 07:53:40;;;;;;;6.00;4.30;;;;;;;21.96;56.86;101102.44;20978006;28;20109;-72
2022/11/03 08:03:48;;;;;;;6.40;3.97;;;;;;;22.00;57.58;101096.00;20986797;28;20076;-73
2022/11/03 08:13:50;;;;;;;8.93;4.47;;;;;;;22.03;57.79;101094.94;20986844;28;20052;-78
2022/11/03 08:23:50;;;;;;;5.78;3.90;;;;;;;22.06;58.34;101086.81;20971560;28;20036;-75
2022/11/03 08:33:51;;;;;;;6.60;4.22;;;;;;;22.07;58.31;101081.44;20978832;28;20046;-76
2022/11/03 08:43:51;;;;;;;8.65;4.97;;;;;;;22.10;58.07;101069.81;20996571;28;20047;-76
2022/11/03 08:53:53;;;;;;;7.35;4.82;;;;;;;22.11;58.63;101066.25;20982371;28;20136;-75
2022/11/03 09:03:54;;;;;;;8.43;4.97;;;;;;;22.14;58.16;101070.44;20992723;28;20052;-75
2022/11/03 09:14:00;;;;;;;8.45;5.20;;;;;;;22.13;58.32;101059.06;20991149;28;20046;-74
2022/11/03 09:24:01;;;;;;;8.80;5.70;;;;;;;22.16;58.36;101058.00;20999144;28;20048;-75
2022/11/03 09:34:02;;;;;;;9.30;5.78;;;;;;;22.16;58.58;101053.56;20992825;28;20090;-75
2022/11/03 09:44:02;;;;;;;9.25;6.22;;;;;;;22.15;58.24;101051.88;21004888;28;20101;-75
2022/11/03 09:54:04;;;;;;;23.98;5.95;;;;;;;22.14;57.99;101038.81;21006447;28;20148;-74
2022/11/03 10:04:05;;;;;;;15.57;5.87;;;;;;;22.13;58.49;101023.94;20984674;28;20049;-75
2022/11/03 10:14:11;;;;;;;10.82;6.50;;;;;;;22.13;58.46;101023.94;20985070;28;20106;-75
2022/11/03 10:24:12;;;;;;;12.32;6.22;;;;;;;22.13;58.67;101006.31;21001840;28;20127;-75
2022/11/03 10:34:33;;;;;;;10.10;6.18;;;;;;;22.07;58.72;100980.41;20999350;28;20045;-75
2022/11/03 10:44:33;;;;;;;10.68;6.20;;;;;;;22.10;58.91;100958.22;21017428;28;20048;-78
2022/11/03 10:54:35;;;;;;;10.85;6.43;;;;;;;22.10;58.73;100945.88;21019735;28;20605;-73
2022/11/03 11:04:35;;;;;;;11.85;6.32;;;;;;;22.11;58.42;100936.19;20983197;28;20131;-74
2022/11/03 11:14:49;;;;;;;12.82;6.63;;;;;;;22.07;58.65;100912.66;20999848;28;20513;-74
2022/11/03 11:24:50;;;;;;;9.13;6.50;;;;;;;22.05;58.89;100893.44;21001449;28;20086;-74
2022/11/03 11:34:50;;;;;;;9.63;6.60;;;;;;;22.04;58.52;100883.84;21004885;28;20302;-74
2022/11/03 11:45:02;;;;;;;10.60;6.22;;;;;;;22.03;58.42;100869.00;21002639;28;20032;-74
2022/11/03 11:55:03;;;;;;;9.83;6.60;;;;;;;22.04;58.49;100846.09;21000165;28;20055;-76
2022/11/03 12:05:06;;;;;;;9.18;6.40;;;;;;;22.00;58.47;100839.38;20979527;28;20041;-73
2022/11/03 12:15:45;;;;;;;10.82;6.57;;;;;;;21.96;58.74;100822.94;20985701;28;20064;-75
2022/11/03 12:25:46;;;;;;;9.25;6.40;;;;;;;21.95;58.64;100818.63;20989104;28;20101;-75
2022/11/03 12:35:46;;;;;;;10.40;6.28;;;;;;;21.96;58.75;100796.59;20983427;28;20422;-73
2022/11/03 12:45:47;;;;;;;7.78;5.75;;;;;;;21.96;58.92;100793.09;20983114;28;20037;-72
2022/11/03 12:55:47;;;;;;;8.05;5.55;;;;;;;21.93;58.89;100780.97;20989190;28;20095;-72
2022/11/03 13:05:47;;;;;;;7.93;5.97;;;;;;;21.91;58.66;100778.47;20988221;28;20059;-73
2022/11/03 13:15:48;;;;;;;7.82;5.40;;;;;;;21.94;58.90;100779.19;20961894;28;20452;-73
2022/11/03 13:25:54;;;;;;;9.00;6.25;;;;;;;21.92;58.60;100768.75;20997204;28;20036;-74
2022/11/03 13:35:54;;;;;;;16.98;7.78;;;;;;;21.84;56.11;100766.69;20964063;28;24984;-75
2022/11/03 13:46:00;;;;;;;16.77;7.18;;;;;;;21.87;56.60;100752.44;20972027;28;20038;-74
2022/11/03 13:56:00;;;;;;;12.98;6.90;;;;;;;21.89;57.28;100754.00;20974570;28;20036;-74
2022/11/03 14:06:00;;;;;;;10.30;6.47;;;;;;;21.88;57.68;100759.41;21002264;28;20521;-74
2022/11/03 14:16:01;;;;;;;11.15;7.15;;;;;;;21.88;57.88;100744.41;21000067;28;20058;-75
2022/11/03 14:26:01;;;;;;;11.95;7.68;;;;;;;21.88;56.66;100735.66;20991214;28;20129;-75
2022/11/03 14:36:02;;;;;;;14.90;7.93;;;;;;;21.88;56.84;100720.69;21002635;28;20048;-75
2022/11/03 14:46:02;;;;;;;13.32;7.93;;;;;;;21.86;56.82;100721.75;20980793;28;20051;-76
2022/11/03 14:56:03;;;;;;;16.58;8.45;;;;;;;21.88;57.27;100710.13;21001283;28;20044;-78
2022/11/03 15:06:03;;;;;;;13.07;7.83;;;;;;;21.89;57.64;100714.44;21001073;28;20060;-78
2022/11/03 15:16:04;;;;;;;13.32;8.27;;;;;;;21.89;57.58;100711.81;21002284;28;21605;-78
2022/11/03 15:26:05;;;;;;;13.07;7.57;;;;;;;21.88;58.25;100702.22;20989861;28;20567;-78
2022/11/03 15:36:07;;;;;;;17.00;7.32;;;;;;;21.90;58.11;100692.41;20989821;28;20047;-79
2022/11/03 15:46:08;;;;;;;12.10;7.50;;;;;;;21.91;58.53;100686.19;20987187;28;20567;-80
2022/11/03 15:56:08;;;;;;;15.10;7.15;;;;;;;21.94;59.67;100695.66;20982575;28;20047;-78
2022/11/03 16:06:11;;;;;;;15.80;7.20;;;;;;;21.98;59.32;100683.06;20988473;28;20044;-79
2022/11/03 16:16:12;;;;;;;12.88;7.57;;;;;;;21.95;59.16;100673.59;20958285;28;20059;-79
2022/11/03 16:26:12;;;;;;;14.20;6.55;;;;;;;21.92;59.49;100663.28;20985154;28;20131;-71
2022/11/03 16:36:12;;;;;;;17.50;6.47;;;;;;;21.90;59.32;100633.59;20965347;28;20128;-72
2022/11/03 16:46:13;;;;;;;10.60;6.40;;;;;;;21.90;59.16;100633.59;20983195;28;20044;-71
2022/11/03 16:56:13;;;;;;;10.57;6.32;;;;;;;21.85;59.06;100635.72;20964448;28;20052;-75
2022/11/03 17:06:14;;;;;;;9.60;6.35;;;;;;;21.83;59.39;100638.47;20971780;28;21731;-72
2022/11/03 17:16:15;;;;;;;10.68;6.45;;;;;;;21.82;58.95;100628.88;20975893;28;20087;-73
2022/11/03 17:26:24;;;;;;;8.48;6.10;;;;;;;21.82;59.25;100626.25;20980750;28;20039;-74
2022/11/03 17:36:25;;;;;;;10.60;6.57;;;;;;;21.79;59.24;100625.63;20975757;28;20131;-74
2022/11/03 17:46:28;;;;;;;9.15;5.97;;;;;;;21.79;59.33;100601.91;20970789;28;20475;-76
2022/11/03 17:56:29;;;;;;;9.75;6.18;;;;;;;21.78;59.46;100579.16;20953857;28;20070;-74
2022/11/03 18:06:29;;;;;;;9.57;5.93;;;;;;;21.75;59.19;100560.00;20982456;28;20044;-74
2022/11/03 18:16:30;;;;;;;11.40;6.18;;;;;;;;;;20969618;28;20072;-76
2022/11/03 18:26:30;;;;;;;15.10;5.90;;;;;;;21.74;60.05;100539.03;20968119;28;20036;-74
2022/11/03 18:36:32;;;;;;;10.70;5.68;;;;;;;21.71;59.89;100520.81;20978430;28;20070;-74
2022/11/03 18:46:33;;;;;;;8.85;5.60;;;;;;;21.71;59.55;100505.00;20990982;28;20086;-72
2022/11/03 18:56:33;;;;;;;9.57;5.85;;;;;;;21.70;59.17;100501.53;21000547;28;20052;-75
2022/11/03 19:06:36;;;;;;;10.27;5.65;;;;;;;21.69;59.32;100472.63;21003798;28;20056;-75
2022/11/03 19:16:36;;;;;;;10.37;6.13;;;;;;;21.72;60.03;100464.50;20984653;28;20432;-79
2022/11/03 19:26:45;;;;;;;10.52;5.93;;;;;;;21.72;59.97;100446.06;20968726;28;20380;-78
2022/11/03 19:36:48;;;;;;;10.02;5.93;;;;;;;21.74;60.77;100436.25;20985786;28;20073;-78
2022/11/03 19:46:49;;;;;;;10.80;5.80;;;;;;;;;;20980216;28;20044;-76
2022/11/03 19:56:50;;;;;;;10.55;6.25;;;;;;;21.72;61.20;100415.25;20991283;28;20135;-76
2022/11/03 20:06:50;;;;;;;9.45;5.78;;;;;;;21.73;61.85;100400.31;20988985;28;20059;-78
2022/11/03 20:16:51;;;;;;;10.65;6.18;;;;;;;21.74;61.80;100399.34;20970230;28;20060;-77
2022/11/03 20:26:51;;;;;;;10.60;6.95;;;;;;;21.72;61.44;100383.63;20971698;28;20036;-74
2022/11/03 20:36:52;;;;;;;12.20;6.45;;;;;;;21.68;61.60;100363.78;20974559;28;20127;-77
2022/11/03 20:46:52;;;;;;;13.50;7.13;;;;;;;21.66;61.19;100354.31;20967829;28;20738;-80
2022/11/03 20:56:53;;;;;;;15.10;7.97;;;;;;;21.59;59.00;100335.50;20993746;28;20049;-76
2022/11/03 21:06:53;;;;;;;21.75;8.27;;;;;;;21.58;60.21;100328.56;20992003;28;21249;-77
2022/11/03 21:27:14;;;;;;;11.75;7.55;;;;;;;21.55;59.84;100337.50;20986151;28;20078;-75
2022/11/03 21:37:15;;;;;;;12.30;7.55;;;;;;;21.55;59.70;100326.97;20984378;28;20098;-75
2022/11/03 21:47:15;;;;;;;13.77;7.63;;;;;;;21.55;60.05;100323.53;20963216;28;20048;-75
2022/11/03 21:57:17;;;;;;;13.13;6.97;;;;;;;21.53;59.81;100305.22;20970640;28;20036;-76
2022/11/03 22:07:17;;;;;;;11.98;7.25;;;;;;;21.51;59.62;100286.03;20983980;28;20052;-75
2022/11/03 22:17:18;;;;;;;11.27;6.85;;;;;;;21.50;59.52;100259.81;20988237;28;20058;-75
2022/11/03 22:27:18;;;;;;;10.27;6.53;;;;;;;21.47;59.71;100236.34;20994315;28;20307;-74
2022/11/03 22:37:19;;;;;;;10.32;6.18;;;;;;;21.48;59.51;100227.50;20975647;28;20051;-74
2022/11/03 22:47:19;;;;;;;11.07;6.63;;;;;;;21.45;59.79;100215.41;20988994;28;20043;-74
2022/11/03 22:57:19;;;;;;;9.57;6.43;;;;;;;21.44;59.48;100213.72;20995706;28;20454;-74
2022/11/03 23:07:20;;;;;;;11.65;5.78;;;;;;;21.42;59.42;100216.50;20992801;28;20036;-74
2022/11/03 23:21:05;;;;;;;10.98;6.20;;;;;;;21.42;59.79;100207.75;20972940;28;20465;-74
2022/11/03 23:27:41;;;;;;;10.68;6.22;;;;;;;21.38;59.61;100199.25;20988212;28;20103;-76
2022/11/03 23:37:41;;;;;;;8.07;5.70;;;;;;;21.38;59.58;100183.44;20978589;28;20036;-75
2022/11/03 23:58:18;;;;;;;9.10;5.90;;;;;;;21.38;59.70;100145.75;20981637;28;20041;-74
